Murphysboro, IL (62966)

12:08 AM CST on March 06, 2015 (GMT -0600)
Northwest Wastewater Treatment Plant | Change Station
CLOSE
Current Station
Personal Weather Station
Location: Carbondale, IL
Elevation: 384 ft
Nearby Weather Stations

Elev 384 ft 37.75 °N, 89.24 °W | Updated 12 minutes ago

Partly Cloudy
Partly Cloudy
9.5 °F
Feels Like 10 °F
N
0.0
Wind Variable Wind from East
Gusts 0.0 mph

Today
High -- | Low -- °F
--% Chance of Precip.
Yesterday
High -- | Low -- °F
Precip. -- in
6:22 AM 5:55 PM
Full, 100% visible
Pressure 30.63 in
Visibility 9.0 miles
Clouds Clear
Windchill 10 °F
Dew Point 6 °F
Humidity 85%
Rainfall in
Snow Depth Not available.
UV 0 out of 12
Pollen .90 out of 12
Air Quality Not available.
Flu Activity Not available.
METAR KMDH 060552Z AUTO 00000KT 9SM CLR M15/M17 A3061 RMK AO2 SLP372 I1000 I6000 T11501172 11078 21161 410501161 50002

More Conditions Fewer Conditions

Pressure 30.63 in
Visibility 9.0 miles
Clouds Clear
Windchill 10 °F
Dew Point 6 °F
Humidity 85%
Rainfall in
Snow Depth Not available.
UV 0 out of 12
Pollen .90 out of 12
Air Quality Not available.
Flu Activity Not available.
METAR KMDH 060552Z AUTO 00000KT 9SM CLR M15/M17 A3061 RMK AO2 SLP372 I1000 I6000 T11501172 11078 21161 410501161 50002

More Conditions Fewer Conditions

10-Day Weather Forecast

Almanac

Astronomy

Mar. 06, 2015 Rise Set
Actual Time
Civil Twilight
Nautical Twilight
Astronomical Twilight
Moon
Length of Visible Light
Length of Day
Tomorrow will be .
, % of the Moon is Illuminated

Today's Extremes

State Highs State Lows

Community

WunderPhotos

Upload Photos

1,803,194 photos uploaded!

WunderBlogs® & News

Nearby

Air Quality

  Air Quality AQ Index Pollutant
Not available.

Snow Depth

Station Depth Elevation

Earthquake Activity

City Distance Mag. Time & Date
Minimum magnitude displayed is 2.5.

Coastal Water Temperatures

Place Temperature

Nearby Weather Stations